KAFN/AFN METAR and TAF weather

Enter ICAO airport designator
Station Type Date Time Source
KAFN METAR 2020/03/31 22:52 UTC NOAA

KAFN 312252Z AUTO 00000KT 10SM FEW042 06/00 A2995 RMK AO2 SLP157 T00610000


Station Type Date Time Source
KAFN Decoded METAR 2020/03/31 22:52 UTC NOAA

JAFFREY MUNI-SILVER RANCH, NH, United States (KAFN) 42-48N 72-00W 313M
Mar 31, 2020 - 06:52 PM EDT / 2020.03.31 2252 UTC
Wind: Calm:0
Visibility: 10 mile(s):0
Sky conditions: mostly clear
Temperature: 43.0 F (6.1 C)
Dew Point: 32.0 F (0.0 C)
Relative Humidity: 64%
Pressure (altimeter): 29.95 in. Hg (1014 hPa)
ob: KAFN 312252Z AUTO 00000KT 10SM FEW042 06/00 A2995 RMK AO2 SLP157 T00610000
cycle: 23

Station Type Date Time Source
KAFN TAF UTC NOAA

Error!

Example: see airport list